sensor_id;sensor_type;location;lat;lon;timestamp;P1;durP1;ratioP1;P2;durP2;ratioP2
2896;SDS011;1458;49.728;9.228;2023-01-29T00:00:05;5.70;;;5.70;;
2896;SDS011;1458;49.728;9.228;2023-01-29T00:02:37;5.80;;;5.80;;
2896;SDS011;1458;49.728;9.228;2023-01-29T00:05:05;6.10;;;6.10;;
2896;SDS011;1458;49.728;9.228;2023-01-29T00:07:33;6.30;;;6.30;;
2896;SDS011;1458;49.728;9.228;2023-01-29T00:10:01;6.80;;;6.70;;
2896;SDS011;1458;49.728;9.228;2023-01-29T00:12:28;6.40;;;6.40;;
2896;SDS011;1458;49.728;9.228;2023-01-29T00:14:56;7.00;;;6.90;;
2896;SDS011;1458;49.728;9.228;2023-01-29T00:17:24;6.50;;;6.50;;
2896;SDS011;1458;49.728;9.228;2023-01-29T00:19:52;6.70;;;6.60;;
2896;SDS011;1458;49.728;9.228;2023-01-29T00:22:20;6.20;;;6.20;;
2896;SDS011;1458;49.728;9.228;2023-01-29T00:24:47;6.60;;;6.60;;
2896;SDS011;1458;49.728;9.228;2023-01-29T00:27:14;6.97;;;6.87;;
2896;SDS011;1458;49.728;9.228;2023-01-29T00:29:42;6.90;;;6.80;;
2896;SDS011;1458;49.728;9.228;2023-01-29T00:32:30;6.60;;;6.60;;
2896;SDS011;1458;49.728;9.228;2023-01-29T00:34:58;7.20;;;7.10;;
2896;SDS011;1458;49.728;9.228;2023-01-29T00:37:25;6.70;;;6.70;;
2896;SDS011;1458;49.728;9.228;2023-01-29T00:39:52;6.50;;;6.50;;
2896;SDS011;1458;49.728;9.228;2023-01-29T00:42:20;5.90;;;5.90;;
2896;SDS011;1458;49.728;9.228;2023-01-29T00:45:05;5.90;;;5.90;;
2896;SDS011;1458;49.728;9.228;2023-01-29T00:47:35;6.20;;;6.20;;
2896;SDS011;1458;49.728;9.228;2023-01-29T00:50:03;6.10;;;6.10;;
2896;SDS011;1458;49.728;9.228;2023-01-29T00:52:33;5.80;;;5.80;;
2896;SDS011;1458;49.728;9.228;2023-01-29T00:55:02;6.00;;;6.00;;
2896;SDS011;1458;49.728;9.228;2023-01-29T00:57:32;6.00;;;6.00;;
2896;SDS011;1458;49.728;9.228;2023-01-29T01:00:00;5.60;;;5.60;;
2896;SDS011;1458;49.728;9.228;2023-01-29T01:02:29;5.57;;;5.57;;
2896;SDS011;1458;49.728;9.228;2023-01-29T01:05:16;5.40;;;5.40;;
2896;SDS011;1458;49.728;9.228;2023-01-29T01:07:44;5.70;;;5.70;;
2896;SDS011;1458;49.728;9.228;2023-01-29T01:10:13;5.57;;;5.57;;
2896;SDS011;1458;49.728;9.228;2023-01-29T01:12:52;5.80;;;5.80;;
2896;SDS011;1458;49.728;9.228;2023-01-29T01:15:23;6.00;;;6.00;;
2896;SDS011;1458;49.728;9.228;2023-01-29T01:17:53;6.10;;;6.10;;
2896;SDS011;1458;49.728;9.228;2023-01-29T01:20:27;6.00;;;6.00;;
2896;SDS011;1458;49.728;9.228;2023-01-29T01:22:56;6.10;;;6.10;;
2896;SDS011;1458;49.728;9.228;2023-01-29T01:25:24;6.60;;;6.60;;
2896;SDS011;1458;49.728;9.228;2023-01-29T01:27:53;6.30;;;6.30;;
2896;SDS011;1458;49.728;9.228;2023-01-29T01:30:23;6.40;;;6.40;;
2896;SDS011;1458;49.728;9.228;2023-01-29T01:32:51;6.50;;;6.50;;
2896;SDS011;1458;49.728;9.228;2023-01-29T01:35:19;6.60;;;6.60;;
2896;SDS011;1458;49.728;9.228;2023-01-29T01:37:48;6.50;;;6.50;;
2896;SDS011;1458;49.728;9.228;2023-01-29T01:40:19;6.50;;;6.50;;
2896;SDS011;1458;49.728;9.228;2023-01-29T01:42:49;6.60;;;6.60;;
2896;SDS011;1458;49.728;9.228;2023-01-29T01:45:21;6.80;;;6.70;;
2896;SDS011;1458;49.728;9.228;2023-01-29T01:47:53;6.80;;;6.70;;
2896;SDS011;1458;49.728;9.228;2023-01-29T01:50:26;6.47;;;6.47;;
2896;SDS011;1458;49.728;9.228;2023-01-29T01:52:59;6.60;;;6.60;;
2896;SDS011;1458;49.728;9.228;2023-01-29T01:55:32;6.70;;;6.70;;
2896;SDS011;1458;49.728;9.228;2023-01-29T01:58:04;6.63;;;6.63;;
2896;SDS011;1458;49.728;9.228;2023-01-29T02:00:35;6.70;;;6.70;;
2896;SDS011;1458;49.728;9.228;2023-01-29T02:03:04;6.50;;;6.50;;
2896;SDS011;1458;49.728;9.228;2023-01-29T02:05:52;6.60;;;6.60;;
2896;SDS011;1458;49.728;9.228;2023-01-29T02:08:43;7.03;;;6.93;;
2896;SDS011;1458;49.728;9.228;2023-01-29T02:11:35;7.20;;;7.10;;
2896;SDS011;1458;49.728;9.228;2023-01-29T02:14:03;7.10;;;7.00;;
2896;SDS011;1458;49.728;9.228;2023-01-29T02:16:30;6.90;;;6.80;;
2896;SDS011;1458;49.728;9.228;2023-01-29T02:19:02;7.30;;;7.20;;
2896;SDS011;1458;49.728;9.228;2023-01-29T02:21:41;6.60;;;6.60;;
2896;SDS011;1458;49.728;9.228;2023-01-29T02:24:52;7.00;;;6.90;;
2896;SDS011;1458;49.728;9.228;2023-01-29T02:27:39;7.00;;;6.90;;
2896;SDS011;1458;49.728;9.228;2023-01-29T02:30:39;7.10;;;7.00;;
2896;SDS011;1458;49.728;9.228;2023-01-29T02:33:13;7.40;;;7.30;;
2896;SDS011;1458;49.728;9.228;2023-01-29T02:35:50;6.40;;;6.40;;
2896;SDS011;1458;49.728;9.228;2023-01-29T02:38:25;6.60;;;6.60;;
2896;SDS011;1458;49.728;9.228;2023-01-29T02:41:00;6.20;;;6.20;;
2896;SDS011;1458;49.728;9.228;2023-01-29T02:43:34;6.50;;;6.50;;
2896;SDS011;1458;49.728;9.228;2023-01-29T02:46:14;6.20;;;6.20;;
2896;SDS011;1458;49.728;9.228;2023-01-29T02:48:53;5.70;;;5.70;;
2896;SDS011;1458;49.728;9.228;2023-01-29T02:51:25;6.10;;;6.10;;
2896;SDS011;1458;49.728;9.228;2023-01-29T02:54:01;6.10;;;6.10;;
2896;SDS011;1458;49.728;9.228;2023-01-29T02:56:35;6.10;;;6.10;;
2896;SDS011;1458;49.728;9.228;2023-01-29T02:59:11;6.30;;;6.30;;
2896;SDS011;1458;49.728;9.228;2023-01-29T03:01:47;6.00;;;6.00;;
2896;SDS011;1458;49.728;9.228;2023-01-29T03:04:18;6.00;;;6.00;;
2896;SDS011;1458;49.728;9.228;2023-01-29T03:06:52;6.13;;;6.13;;
2896;SDS011;1458;49.728;9.228;2023-01-29T03:09:25;5.97;;;5.97;;
2896;SDS011;1458;49.728;9.228;2023-01-29T03:12:02;6.10;;;6.10;;
2896;SDS011;1458;49.728;9.228;2023-01-29T03:14:55;6.27;;;6.27;;
2896;SDS011;1458;49.728;9.228;2023-01-29T03:17:39;5.90;;;5.90;;
2896;SDS011;1458;49.728;9.228;2023-01-29T03:20:14;5.70;;;5.70;;
2896;SDS011;1458;49.728;9.228;2023-01-29T03:22:46;5.50;;;5.50;;
2896;SDS011;1458;49.728;9.228;2023-01-29T03:25:19;5.30;;;5.30;;
2896;SDS011;1458;49.728;9.228;2023-01-29T03:28:05;5.40;;;5.40;;
2896;SDS011;1458;49.728;9.228;2023-01-29T03:30:55;5.70;;;5.70;;
2896;SDS011;1458;49.728;9.228;2023-01-29T03:33:53;5.70;;;5.70;;
2896;SDS011;1458;49.728;9.228;2023-01-29T03:36:30;5.73;;;5.73;;
2896;SDS011;1458;49.728;9.228;2023-01-29T03:39:04;5.40;;;5.40;;
2896;SDS011;1458;49.728;9.228;2023-01-29T03:41:33;5.30;;;5.30;;
2896;SDS011;1458;49.728;9.228;2023-01-29T03:44:09;5.60;;;5.60;;
2896;SDS011;1458;49.728;9.228;2023-01-29T03:46:44;6.00;;;6.00;;
2896;SDS011;1458;49.728;9.228;2023-01-29T03:49:20;5.50;;;5.50;;
2896;SDS011;1458;49.728;9.228;2023-01-29T03:51:57;6.20;;;6.20;;
2896;SDS011;1458;49.728;9.228;2023-01-29T03:54:31;6.53;;;6.53;;
2896;SDS011;1458;49.728;9.228;2023-01-29T03:57:09;6.10;;;6.10;;
2896;SDS011;1458;49.728;9.228;2023-01-29T03:59:47;6.50;;;6.50;;
2896;SDS011;1458;49.728;9.228;2023-01-29T04:03:02;6.57;;;6.57;;
2896;SDS011;1458;49.728;9.228;2023-01-29T04:05:41;6.50;;;6.50;;
2896;SDS011;1458;49.728;9.228;2023-01-29T04:08:25;6.43;;;6.43;;
2896;SDS011;1458;49.728;9.228;2023-01-29T04:10:59;7.00;;;6.90;;
2896;SDS011;1458;49.728;9.228;2023-01-29T04:13:33;7.20;;;7.10;;
2896;SDS011;1458;49.728;9.228;2023-01-29T04:16:03;6.50;;;6.50;;
2896;SDS011;1458;49.728;9.228;2023-01-29T04:18:56;6.70;;;6.70;;
2896;SDS011;1458;49.728;9.228;2023-01-29T04:21:28;6.40;;;6.40;;
2896;SDS011;1458;49.728;9.228;2023-01-29T04:23:57;6.77;;;6.73;;
2896;SDS011;1458;49.728;9.228;2023-01-29T04:26:29;6.60;;;6.60;;
2896;SDS011;1458;49.728;9.228;2023-01-29T04:29:24;6.50;;;6.50;;
2896;SDS011;1458;49.728;9.228;2023-01-29T04:32:08;6.40;;;6.40;;
2896;SDS011;1458;49.728;9.228;2023-01-29T04:34:54;6.60;;;6.60;;
2896;SDS011;1458;49.728;9.228;2023-01-29T04:37:31;6.60;;;6.60;;
2896;SDS011;1458;49.728;9.228;2023-01-29T04:40:13;7.20;;;7.10;;
2896;SDS011;1458;49.728;9.228;2023-01-29T04:42:47;7.20;;;7.10;;
2896;SDS011;1458;49.728;9.228;2023-01-29T04:45:24;7.00;;;6.90;;
2896;SDS011;1458;49.728;9.228;2023-01-29T04:48:03;6.70;;;6.63;;
2896;SDS011;1458;49.728;9.228;2023-01-29T04:50:43;6.60;;;6.60;;
2896;SDS011;1458;49.728;9.228;2023-01-29T04:53:20;7.00;;;6.90;;
2896;SDS011;1458;49.728;9.228;2023-01-29T04:55:58;7.20;;;7.10;;
2896;SDS011;1458;49.728;9.228;2023-01-29T04:58:34;6.90;;;6.80;;
2896;SDS011;1458;49.728;9.228;2023-01-29T05:01:05;6.40;;;6.40;;
2896;SDS011;1458;49.728;9.228;2023-01-29T05:03:38;6.50;;;6.50;;
2896;SDS011;1458;49.728;9.228;2023-01-29T05:06:10;6.10;;;6.10;;
2896;SDS011;1458;49.728;9.228;2023-01-29T05:08:38;6.00;;;6.00;;
2896;SDS011;1458;49.728;9.228;2023-01-29T05:11:07;5.90;;;5.90;;
2896;SDS011;1458;49.728;9.228;2023-01-29T05:13:35;5.33;;;5.33;;
2896;SDS011;1458;49.728;9.228;2023-01-29T05:16:07;5.60;;;5.60;;
2896;SDS011;1458;49.728;9.228;2023-01-29T05:18:40;5.20;;;5.20;;
2896;SDS011;1458;49.728;9.228;2023-01-29T05:21:07;5.27;;;5.27;;
2896;SDS011;1458;49.728;9.228;2023-01-29T05:23:37;5.00;;;5.00;;
2896;SDS011;1458;49.728;9.228;2023-01-29T05:26:04;4.70;;;4.70;;
2896;SDS011;1458;49.728;9.228;2023-01-29T05:28:54;4.70;;;4.70;;
2896;SDS011;1458;49.728;9.228;2023-01-29T05:31:21;4.70;;;4.70;;
2896;SDS011;1458;49.728;9.228;2023-01-29T05:33:49;5.00;;;5.00;;
2896;SDS011;1458;49.728;9.228;2023-01-29T05:36:18;5.20;;;5.20;;
2896;SDS011;1458;49.728;9.228;2023-01-29T05:38:45;5.10;;;5.10;;
2896;SDS011;1458;49.728;9.228;2023-01-29T05:41:12;5.13;;;5.13;;
2896;SDS011;1458;49.728;9.228;2023-01-29T05:43:41;4.90;;;4.90;;
2896;SDS011;1458;49.728;9.228;2023-01-29T05:46:08;5.00;;;5.00;;
2896;SDS011;1458;49.728;9.228;2023-01-29T05:48:35;4.90;;;4.90;;
2896;SDS011;1458;49.728;9.228;2023-01-29T05:51:03;4.90;;;4.90;;
2896;SDS011;1458;49.728;9.228;2023-01-29T05:53:32;4.70;;;4.70;;
2896;SDS011;1458;49.728;9.228;2023-01-29T05:56:00;4.40;;;4.40;;
2896;SDS011;1458;49.728;9.228;2023-01-29T05:58:29;4.47;;;4.47;;
2896;SDS011;1458;49.728;9.228;2023-01-29T06:00:57;4.40;;;4.40;;
2896;SDS011;1458;49.728;9.228;2023-01-29T06:03:33;4.47;;;4.47;;
2896;SDS011;1458;49.728;9.228;2023-01-29T06:06:01;4.63;;;4.63;;
2896;SDS011;1458;49.728;9.228;2023-01-29T06:08:28;4.47;;;4.47;;
2896;SDS011;1458;49.728;9.228;2023-01-29T06:10:57;4.80;;;4.80;;
2896;SDS011;1458;49.728;9.228;2023-01-29T06:13:25;4.70;;;4.70;;
2896;SDS011;1458;49.728;9.228;2023-01-29T06:15:52;4.80;;;4.80;;
2896;SDS011;1458;49.728;9.228;2023-01-29T06:18:19;4.80;;;4.80;;
2896;SDS011;1458;49.728;9.228;2023-01-29T06:20:47;4.90;;;4.90;;
2896;SDS011;1458;49.728;9.228;2023-01-29T06:23:14;5.30;;;5.30;;
2896;SDS011;1458;49.728;9.228;2023-01-29T06:25:42;5.10;;;5.10;;
2896;SDS011;1458;49.728;9.228;2023-01-29T06:28:10;5.60;;;5.60;;
2896;SDS011;1458;49.728;9.228;2023-01-29T06:30:37;5.30;;;5.30;;
2896;SDS011;1458;49.728;9.228;2023-01-29T06:33:05;5.30;;;5.30;;
2896;SDS011;1458;49.728;9.228;2023-01-29T06:35:32;5.30;;;5.30;;
2896;SDS011;1458;49.728;9.228;2023-01-29T06:37:59;5.30;;;5.30;;
2896;SDS011;1458;49.728;9.228;2023-01-29T06:40:27;5.40;;;5.40;;
2896;SDS011;1458;49.728;9.228;2023-01-29T06:42:54;5.00;;;5.00;;
2896;SDS011;1458;49.728;9.228;2023-01-29T06:45:23;5.20;;;5.20;;
2896;SDS011;1458;49.728;9.228;2023-01-29T06:47:50;5.30;;;5.30;;
2896;SDS011;1458;49.728;9.228;2023-01-29T06:50:18;5.40;;;5.40;;
2896;SDS011;1458;49.728;9.228;2023-01-29T06:52:46;5.23;;;5.23;;
2896;SDS011;1458;49.728;9.228;2023-01-29T06:55:14;5.37;;;5.37;;
2896;SDS011;1458;49.728;9.228;2023-01-29T06:57:41;5.50;;;5.50;;
2896;SDS011;1458;49.728;9.228;2023-01-29T07:00:09;5.60;;;5.60;;
2896;SDS011;1458;49.728;9.228;2023-01-29T07:02:39;5.70;;;5.70;;
2896;SDS011;1458;49.728;9.228;2023-01-29T07:05:07;5.70;;;5.70;;
2896;SDS011;1458;49.728;9.228;2023-01-29T07:07:34;5.90;;;5.90;;
2896;SDS011;1458;49.728;9.228;2023-01-29T07:10:02;5.80;;;5.80;;
2896;SDS011;1458;49.728;9.228;2023-01-29T07:12:30;5.90;;;5.90;;
2896;SDS011;1458;49.728;9.228;2023-01-29T07:14:57;5.70;;;5.70;;
2896;SDS011;1458;49.728;9.228;2023-01-29T07:17:25;5.60;;;5.60;;
2896;SDS011;1458;49.728;9.228;2023-01-29T07:19:53;5.70;;;5.70;;
2896;SDS011;1458;49.728;9.228;2023-01-29T07:22:21;5.53;;;5.53;;
2896;SDS011;1458;49.728;9.228;2023-01-29T07:24:48;5.60;;;5.60;;
2896;SDS011;1458;49.728;9.228;2023-01-29T07:27:15;5.50;;;5.50;;
2896;SDS011;1458;49.728;9.228;2023-01-29T07:29:43;5.43;;;5.43;;
2896;SDS011;1458;49.728;9.228;2023-01-29T07:32:10;5.60;;;5.60;;
2896;SDS011;1458;49.728;9.228;2023-01-29T07:34:37;5.80;;;5.80;;
2896;SDS011;1458;49.728;9.228;2023-01-29T07:37:06;5.80;;;5.80;;
2896;SDS011;1458;49.728;9.228;2023-01-29T07:39:34;5.70;;;5.70;;
2896;SDS011;1458;49.728;9.228;2023-01-29T07:42:01;5.70;;;5.70;;
2896;SDS011;1458;49.728;9.228;2023-01-29T07:44:28;5.20;;;5.20;;
2896;SDS011;1458;49.728;9.228;2023-01-29T07:46:56;5.30;;;5.30;;
2896;SDS011;1458;49.728;9.228;2023-01-29T07:49:23;5.50;;;5.50;;
2896;SDS011;1458;49.728;9.228;2023-01-29T07:51:50;5.50;;;5.50;;
2896;SDS011;1458;49.728;9.228;2023-01-29T07:54:19;5.70;;;5.70;;
2896;SDS011;1458;49.728;9.228;2023-01-29T07:56:46;6.10;;;6.10;;
2896;SDS011;1458;49.728;9.228;2023-01-29T07:59:14;5.80;;;5.80;;
2896;SDS011;1458;49.728;9.228;2023-01-29T08:01:41;5.60;;;5.60;;
2896;SDS011;1458;49.728;9.228;2023-01-29T08:04:09;5.60;;;5.60;;
2896;SDS011;1458;49.728;9.228;2023-01-29T08:06:36;5.80;;;5.80;;
2896;SDS011;1458;49.728;9.228;2023-01-29T08:09:04;6.10;;;6.10;;
2896;SDS011;1458;49.728;9.228;2023-01-29T08:11:33;6.23;;;6.23;;
2896;SDS011;1458;49.728;9.228;2023-01-29T08:14:00;5.90;;;5.90;;
2896;SDS011;1458;49.728;9.228;2023-01-29T08:16:27;5.80;;;5.80;;
2896;SDS011;1458;49.728;9.228;2023-01-29T08:18:55;6.00;;;6.00;;
2896;SDS011;1458;49.728;9.228;2023-01-29T08:21:22;6.10;;;6.10;;
2896;SDS011;1458;49.728;9.228;2023-01-29T08:23:49;5.90;;;5.90;;
2896;SDS011;1458;49.728;9.228;2023-01-29T08:26:17;5.70;;;5.70;;
2896;SDS011;1458;49.728;9.228;2023-01-29T08:28:45;5.90;;;5.90;;
2896;SDS011;1458;49.728;9.228;2023-01-29T08:31:13;6.10;;;6.10;;
2896;SDS011;1458;49.728;9.228;2023-01-29T08:33:41;6.10;;;6.10;;
2896;SDS011;1458;49.728;9.228;2023-01-29T08:36:08;6.30;;;6.30;;
2896;SDS011;1458;49.728;9.228;2023-01-29T08:38:36;6.43;;;6.43;;
2896;SDS011;1458;49.728;9.228;2023-01-29T08:41:03;6.10;;;6.10;;
2896;SDS011;1458;49.728;9.228;2023-01-29T08:43:31;6.50;;;6.50;;
2896;SDS011;1458;49.728;9.228;2023-01-29T08:46:03;6.10;;;6.10;;
2896;SDS011;1458;49.728;9.228;2023-01-29T08:48:31;6.57;;;6.57;;
2896;SDS011;1458;49.728;9.228;2023-01-29T08:50:59;6.60;;;6.60;;
2896;SDS011;1458;49.728;9.228;2023-01-29T08:53:28;6.40;;;6.40;;
2896;SDS011;1458;49.728;9.228;2023-01-29T08:55:56;6.23;;;6.23;;
2896;SDS011;1458;49.728;9.228;2023-01-29T08:58:23;6.10;;;6.10;;
2896;SDS011;1458;49.728;9.228;2023-01-29T09:00:51;5.93;;;5.93;;
2896;SDS011;1458;49.728;9.228;2023-01-29T09:03:19;5.80;;;5.80;;
2896;SDS011;1458;49.728;9.228;2023-01-29T09:05:47;6.10;;;6.10;;
2896;SDS011;1458;49.728;9.228;2023-01-29T09:08:14;5.60;;;5.60;;
2896;SDS011;1458;49.728;9.228;2023-01-29T09:10:42;5.90;;;5.90;;
2896;SDS011;1458;49.728;9.228;2023-01-29T09:13:09;6.20;;;6.20;;
2896;SDS011;1458;49.728;9.228;2023-01-29T09:15:37;5.90;;;5.90;;
2896;SDS011;1458;49.728;9.228;2023-01-29T09:18:04;5.90;;;5.90;;
2896;SDS011;1458;49.728;9.228;2023-01-29T09:20:33;5.77;;;5.77;;
2896;SDS011;1458;49.728;9.228;2023-01-29T09:23:03;6.10;;;6.10;;
2896;SDS011;1458;49.728;9.228;2023-01-29T09:25:31;6.60;;;6.60;;
2896;SDS011;1458;49.728;9.228;2023-01-29T09:27:58;6.90;;;6.80;;
2896;SDS011;1458;49.728;9.228;2023-01-29T09:30:26;6.50;;;6.50;;
2896;SDS011;1458;49.728;9.228;2023-01-29T09:32:54;6.53;;;6.53;;
2896;SDS011;1458;49.728;9.228;2023-01-29T09:35:21;6.80;;;6.70;;
2896;SDS011;1458;49.728;9.228;2023-01-29T09:37:50;7.50;;;7.40;;
2896;SDS011;1458;49.728;9.228;2023-01-29T09:40:21;7.87;;;7.77;;
2896;SDS011;1458;49.728;9.228;2023-01-29T09:42:54;7.60;;;7.50;;
2896;SDS011;1458;49.728;9.228;2023-01-29T09:45:26;7.70;;;7.60;;
2896;SDS011;1458;49.728;9.228;2023-01-29T09:47:55;7.80;;;7.70;;
2896;SDS011;1458;49.728;9.228;2023-01-29T09:50:27;7.77;;;7.67;;
2896;SDS011;1458;49.728;9.228;2023-01-29T09:53:06;7.90;;;7.80;;
2896;SDS011;1458;49.728;9.228;2023-01-29T09:55:44;7.53;;;7.43;;
2896;SDS011;1458;49.728;9.228;2023-01-29T09:58:17;7.60;;;7.50;;
2896;SDS011;1458;49.728;9.228;2023-01-29T10:00:52;7.60;;;7.50;;
2896;SDS011;1458;49.728;9.228;2023-01-29T10:03:30;7.90;;;7.80;;
2896;SDS011;1458;49.728;9.228;2023-01-29T10:06:23;8.00;;;7.90;;
2896;SDS011;1458;49.728;9.228;2023-01-29T10:09:27;7.90;;;7.80;;
2896;SDS011;1458;49.728;9.228;2023-01-29T10:12:21;7.90;;;7.80;;
2896;SDS011;1458;49.728;9.228;2023-01-29T10:15:08;8.10;;;8.00;;
2896;SDS011;1458;49.728;9.228;2023-01-29T10:17:52;7.80;;;7.70;;
2896;SDS011;1458;49.728;9.228;2023-01-29T10:20:33;7.70;;;7.60;;
2896;SDS011;1458;49.728;9.228;2023-01-29T10:23:15;7.30;;;7.20;;
2896;SDS011;1458;49.728;9.228;2023-01-29T10:25:50;7.30;;;7.20;;
2896;SDS011;1458;49.728;9.228;2023-01-29T10:28:20;7.40;;;7.30;;
2896;SDS011;1458;49.728;9.228;2023-01-29T10:30:55;7.47;;;7.37;;
2896;SDS011;1458;49.728;9.228;2023-01-29T10:33:28;6.90;;;6.80;;
2896;SDS011;1458;49.728;9.228;2023-01-29T10:36:03;6.73;;;6.70;;
2896;SDS011;1458;49.728;9.228;2023-01-29T10:38:38;6.90;;;6.80;;
2896;SDS011;1458;49.728;9.228;2023-01-29T10:41:15;7.50;;;7.40;;
2896;SDS011;1458;49.728;9.228;2023-01-29T10:44:09;7.20;;;7.10;;
2896;SDS011;1458;49.728;9.228;2023-01-29T10:47:05;7.50;;;7.40;;
2896;SDS011;1458;49.728;9.228;2023-01-29T10:49:56;7.40;;;7.30;;
2896;SDS011;1458;49.728;9.228;2023-01-29T10:52:39;7.40;;;7.30;;
2896;SDS011;1458;49.728;9.228;2023-01-29T10:55:28;7.40;;;7.30;;
2896;SDS011;1458;49.728;9.228;2023-01-29T10:58:11;7.13;;;7.03;;
2896;SDS011;1458;49.728;9.228;2023-01-29T11:00:47;6.90;;;6.80;;
2896;SDS011;1458;49.728;9.228;2023-01-29T11:03:16;7.20;;;7.10;;
2896;SDS011;1458;49.728;9.228;2023-01-29T11:05:49;7.37;;;7.27;;
2896;SDS011;1458;49.728;9.228;2023-01-29T11:08:23;7.50;;;7.40;;
2896;SDS011;1458;49.728;9.228;2023-01-29T11:10:58;7.70;;;7.60;;
2896;SDS011;1458;49.728;9.228;2023-01-29T11:13:36;7.90;;;7.80;;
2896;SDS011;1458;49.728;9.228;2023-01-29T11:16:09;8.00;;;7.90;;
2896;SDS011;1458;49.728;9.228;2023-01-29T11:18:50;8.07;;;7.97;;
2896;SDS011;1458;49.728;9.228;2023-01-29T11:21:23;7.70;;;7.60;;
2896;SDS011;1458;49.728;9.228;2023-01-29T11:24:03;7.97;;;7.87;;
2896;SDS011;1458;49.728;9.228;2023-01-29T11:26:33;7.60;;;7.50;;
2896;SDS011;1458;49.728;9.228;2023-01-29T11:29:07;8.10;;;8.00;;
2896;SDS011;1458;49.728;9.228;2023-01-29T11:32:01;7.80;;;7.70;;
2896;SDS011;1458;49.728;9.228;2023-01-29T11:34:31;7.70;;;7.60;;
2896;SDS011;1458;49.728;9.228;2023-01-29T11:36:59;7.90;;;7.80;;
2896;SDS011;1458;49.728;9.228;2023-01-29T11:39:30;8.17;;;8.07;;
2896;SDS011;1458;49.728;9.228;2023-01-29T11:41:59;8.00;;;7.90;;
2896;SDS011;1458;49.728;9.228;2023-01-29T11:44:31;7.90;;;7.80;;
2896;SDS011;1458;49.728;9.228;2023-01-29T11:47:10;8.00;;;7.90;;
2896;SDS011;1458;49.728;9.228;2023-01-29T11:49:44;7.90;;;7.80;;
2896;SDS011;1458;49.728;9.228;2023-01-29T11:52:14;8.10;;;8.00;;
2896;SDS011;1458;49.728;9.228;2023-01-29T11:54:46;8.23;;;8.13;;
2896;SDS011;1458;49.728;9.228;2023-01-29T11:57:21;7.60;;;7.50;;
2896;SDS011;1458;49.728;9.228;2023-01-29T11:59:54;7.70;;;7.60;;
2896;SDS011;1458;49.728;9.228;2023-01-29T12:02:26;7.70;;;7.60;;
2896;SDS011;1458;49.728;9.228;2023-01-29T12:05:01;7.30;;;7.20;;
2896;SDS011;1458;49.728;9.228;2023-01-29T12:07:32;7.70;;;7.60;;
2896;SDS011;1458;49.728;9.228;2023-01-29T12:10:00;7.60;;;7.50;;
2896;SDS011;1458;49.728;9.228;2023-01-29T12:12:38;7.50;;;7.40;;
2896;SDS011;1458;49.728;9.228;2023-01-29T12:15:20;7.60;;;7.50;;
2896;SDS011;1458;49.728;9.228;2023-01-29T12:17:50;8.03;;;7.93;;
2896;SDS011;1458;49.728;9.228;2023-01-29T12:20:26;7.83;;;7.73;;
2896;SDS011;1458;49.728;9.228;2023-01-29T12:23:02;8.30;;;8.20;;
2896;SDS011;1458;49.728;9.228;2023-01-29T12:25:41;8.30;;;8.20;;
2896;SDS011;1458;49.728;9.228;2023-01-29T12:28:18;8.40;;;8.30;;
2896;SDS011;1458;49.728;9.228;2023-01-29T12:31:03;8.30;;;8.20;;
2896;SDS011;1458;49.728;9.228;2023-01-29T12:33:42;8.00;;;7.90;;
2896;SDS011;1458;49.728;9.228;2023-01-29T12:36:18;8.10;;;8.00;;
2896;SDS011;1458;49.728;9.228;2023-01-29T12:38:51;7.80;;;7.70;;
2896;SDS011;1458;49.728;9.228;2023-01-29T12:41:30;7.80;;;7.70;;
2896;SDS011;1458;49.728;9.228;2023-01-29T12:44:04;8.17;;;8.07;;
2896;SDS011;1458;49.728;9.228;2023-01-29T12:46:41;8.00;;;7.90;;
2896;SDS011;1458;49.728;9.228;2023-01-29T12:49:15;8.30;;;8.20;;
2896;SDS011;1458;49.728;9.228;2023-01-29T12:51:51;7.70;;;7.60;;
2896;SDS011;1458;49.728;9.228;2023-01-29T12:54:26;7.70;;;7.60;;
2896;SDS011;1458;49.728;9.228;2023-01-29T12:57:01;8.00;;;7.90;;
2896;SDS011;1458;49.728;9.228;2023-01-29T12:59:35;8.00;;;7.90;;
2896;SDS011;1458;49.728;9.228;2023-01-29T13:02:17;8.03;;;7.93;;
2896;SDS011;1458;49.728;9.228;2023-01-29T13:04:56;7.60;;;7.50;;
2896;SDS011;1458;49.728;9.228;2023-01-29T13:07:30;7.70;;;7.60;;
2896;SDS011;1458;49.728;9.228;2023-01-29T13:10:06;7.70;;;7.60;;
2896;SDS011;1458;49.728;9.228;2023-01-29T13:12:39;7.90;;;7.80;;
2896;SDS011;1458;49.728;9.228;2023-01-29T13:15:20;8.10;;;8.00;;
2896;SDS011;1458;49.728;9.228;2023-01-29T13:17:56;8.40;;;8.30;;
2896;SDS011;1458;49.728;9.228;2023-01-29T13:20:37;7.93;;;7.83;;
2896;SDS011;1458;49.728;9.228;2023-01-29T13:23:11;8.20;;;8.10;;
2896;SDS011;1458;49.728;9.228;2023-01-29T13:25:48;8.60;;;8.50;;
2896;SDS011;1458;49.728;9.228;2023-01-29T13:28:17;8.40;;;8.30;;
2896;SDS011;1458;49.728;9.228;2023-01-29T13:33:54;8.10;;;8.00;;
2896;SDS011;1458;49.728;9.228;2023-01-29T13:36:33;8.30;;;8.20;;
2896;SDS011;1458;49.728;9.228;2023-01-29T13:39:04;8.10;;;8.00;;
2896;SDS011;1458;49.728;9.228;2023-01-29T13:41:33;7.90;;;7.80;;
2896;SDS011;1458;49.728;9.228;2023-01-29T13:44:15;7.90;;;7.80;;
2896;SDS011;1458;49.728;9.228;2023-01-29T13:46:48;8.10;;;8.00;;
2896;SDS011;1458;49.728;9.228;2023-01-29T13:49:24;8.00;;;7.90;;
2896;SDS011;1458;49.728;9.228;2023-01-29T13:51:57;7.83;;;7.73;;
2896;SDS011;1458;49.728;9.228;2023-01-29T13:54:40;7.80;;;7.70;;
2896;SDS011;1458;49.728;9.228;2023-01-29T14:06:37;8.10;;;8.00;;
2896;SDS011;1458;49.728;9.228;2023-01-29T14:09:32;8.00;;;7.90;;
2896;SDS011;1458;49.728;9.228;2023-01-29T14:12:34;8.00;;;7.90;;
2896;SDS011;1458;49.728;9.228;2023-01-29T14:23:49;8.30;;;8.20;;
2896;SDS011;1458;49.728;9.228;2023-01-29T14:26:19;8.40;;;8.30;;
2896;SDS011;1458;49.728;9.228;2023-01-29T14:28:52;8.10;;;8.00;;
2896;SDS011;1458;49.728;9.228;2023-01-29T14:31:35;8.10;;;8.00;;
2896;SDS011;1458;49.728;9.228;2023-01-29T14:34:12;8.27;;;8.17;;
2896;SDS011;1458;49.728;9.228;2023-01-29T14:36:46;8.30;;;8.20;;
2896;SDS011;1458;49.728;9.228;2023-01-29T14:39:22;8.40;;;8.30;;
2896;SDS011;1458;49.728;9.228;2023-01-29T14:41:58;8.40;;;8.30;;
2896;SDS011;1458;49.728;9.228;2023-01-29T14:50:40;7.77;;;7.67;;
2896;SDS011;1458;49.728;9.228;2023-01-29T14:53:15;7.90;;;7.80;;
2896;SDS011;1458;49.728;9.228;2023-01-29T14:55:51;7.70;;;7.60;;
2896;SDS011;1458;49.728;9.228;2023-01-29T14:58:26;7.70;;;7.60;;
2896;SDS011;1458;49.728;9.228;2023-01-29T15:01:03;7.70;;;7.60;;
2896;SDS011;1458;49.728;9.228;2023-01-29T15:03:38;7.50;;;7.40;;
2896;SDS011;1458;49.728;9.228;2023-01-29T15:06:14;7.53;;;7.43;;
2896;SDS011;1458;49.728;9.228;2023-01-29T15:08:49;7.50;;;7.40;;
2896;SDS011;1458;49.728;9.228;2023-01-29T15:11:32;7.53;;;7.43;;
2896;SDS011;1458;49.728;9.228;2023-01-29T15:14:13;7.40;;;7.30;;
2896;SDS011;1458;49.728;9.228;2023-01-29T15:16:52;7.13;;;7.03;;
2896;SDS011;1458;49.728;9.228;2023-01-29T15:19:43;7.00;;;6.90;;
2896;SDS011;1458;49.728;9.228;2023-01-29T15:22:13;7.20;;;7.10;;
2896;SDS011;1458;49.728;9.228;2023-01-29T15:24:42;7.07;;;6.97;;
2896;SDS011;1458;49.728;9.228;2023-01-29T15:27:13;7.03;;;6.93;;
2896;SDS011;1458;49.728;9.228;2023-01-29T15:29:45;7.50;;;7.40;;
2896;SDS011;1458;49.728;9.228;2023-01-29T15:32:22;7.00;;;6.90;;
2896;SDS011;1458;49.728;9.228;2023-01-29T15:34:54;6.60;;;6.60;;
2896;SDS011;1458;49.728;9.228;2023-01-29T15:37:23;6.80;;;6.70;;
2896;SDS011;1458;49.728;9.228;2023-01-29T15:39:53;6.57;;;6.57;;
2896;SDS011;1458;49.728;9.228;2023-01-29T15:42:22;6.40;;;6.40;;
2896;SDS011;1458;49.728;9.228;2023-01-29T15:44:51;6.20;;;6.20;;
2896;SDS011;1458;49.728;9.228;2023-01-29T15:47:20;5.83;;;5.83;;
2896;SDS011;1458;49.728;9.228;2023-01-29T15:49:54;5.90;;;5.90;;
2896;SDS011;1458;49.728;9.228;2023-01-29T15:52:23;5.60;;;5.60;;
2896;SDS011;1458;49.728;9.228;2023-01-29T15:55:00;5.60;;;5.60;;
2896;SDS011;1458;49.728;9.228;2023-01-29T15:57:34;5.37;;;5.37;;
2896;SDS011;1458;49.728;9.228;2023-01-29T16:00:16;5.30;;;5.30;;
2896;SDS011;1458;49.728;9.228;2023-01-29T16:02:49;5.30;;;5.30;;
2896;SDS011;1458;49.728;9.228;2023-01-29T16:05:17;5.40;;;5.40;;
2896;SDS011;1458;49.728;9.228;2023-01-29T16:07:47;5.00;;;5.00;;
2896;SDS011;1458;49.728;9.228;2023-01-29T16:10:17;4.80;;;4.80;;
2896;SDS011;1458;49.728;9.228;2023-01-29T16:12:49;4.80;;;4.80;;
2896;SDS011;1458;49.728;9.228;2023-01-29T16:15:21;4.60;;;4.60;;
2896;SDS011;1458;49.728;9.228;2023-01-29T16:17:56;4.63;;;4.63;;
2896;SDS011;1458;49.728;9.228;2023-01-29T16:20:32;4.50;;;4.50;;